sensor_id;sensor_type;location;lat;lon;timestamp;P1;durP1;ratioP1;P2;durP2;ratioP2
32485;SDS011;18935;52.236;21.134;2022-07-24T00:02:24;25.63;;;19.83;;
32485;SDS011;18935;52.236;21.134;2022-07-24T00:04:50;25.45;;;19.67;;
32485;SDS011;18935;52.236;21.134;2022-07-24T00:07:15;24.92;;;20.58;;
32485;SDS011;18935;52.236;21.134;2022-07-24T00:09:41;22.83;;;19.38;;
32485;SDS011;18935;52.236;21.134;2022-07-24T00:12:09;23.58;;;19.80;;
32485;SDS011;18935;52.236;21.134;2022-07-24T00:14:34;22.40;;;19.70;;
32485;SDS011;18935;52.236;21.134;2022-07-24T00:16:59;25.40;;;21.77;;
32485;SDS011;18935;52.236;21.134;2022-07-24T00:19:25;22.23;;;19.83;;
32485;SDS011;18935;52.236;21.134;2022-07-24T00:21:50;28.73;;;21.43;;
32485;SDS011;18935;52.236;21.134;2022-07-24T00:24:15;30.92;;;22.35;;
32485;SDS011;18935;52.236;21.134;2022-07-24T00:26:41;28.90;;;21.50;;
32485;SDS011;18935;52.236;21.134;2022-07-24T00:29:07;26.38;;;21.83;;
32485;SDS011;18935;52.236;21.134;2022-07-24T00:31:32;31.60;;;21.90;;
32485;SDS011;18935;52.236;21.134;2022-07-24T00:33:57;27.77;;;22.97;;
32485;SDS011;18935;52.236;21.134;2022-07-24T00:36:23;29.48;;;23.15;;
32485;SDS011;18935;52.236;21.134;2022-07-24T00:38:48;28.43;;;22.70;;
32485;SDS011;18935;52.236;21.134;2022-07-24T00:41:13;33.10;;;24.53;;
32485;SDS011;18935;52.236;21.134;2022-07-24T00:43:57;37.97;;;24.77;;
32485;SDS011;18935;52.236;21.134;2022-07-24T00:46:24;31.58;;;23.05;;
32485;SDS011;18935;52.236;21.134;2022-07-24T00:48:49;31.57;;;22.97;;
32485;SDS011;18935;52.236;21.134;2022-07-24T00:51:14;30.67;;;22.97;;
32485;SDS011;18935;52.236;21.134;2022-07-24T00:53:39;30.13;;;23.97;;
32485;SDS011;18935;52.236;21.134;2022-07-24T00:56:05;32.95;;;23.58;;
32485;SDS011;18935;52.236;21.134;2022-07-24T00:58:31;30.90;;;23.30;;
32485;SDS011;18935;52.236;21.134;2022-07-24T01:00:56;28.90;;;22.47;;
32485;SDS011;18935;52.236;21.134;2022-07-24T01:03:21;29.03;;;22.53;;
32485;SDS011;18935;52.236;21.134;2022-07-24T01:05:46;31.97;;;22.90;;
32485;SDS011;18935;52.236;21.134;2022-07-24T01:08:12;33.80;;;22.85;;
32485;SDS011;18935;52.236;21.134;2022-07-24T01:10:37;32.63;;;22.63;;
32485;SDS011;18935;52.236;21.134;2022-07-24T01:13:03;32.55;;;22.23;;
32485;SDS011;18935;52.236;21.134;2022-07-24T01:15:28;30.80;;;24.05;;
32485;SDS011;18935;52.236;21.134;2022-07-24T01:17:53;29.02;;;22.55;;
32485;SDS011;18935;52.236;21.134;2022-07-24T01:20:19;33.87;;;23.17;;
32485;SDS011;18935;52.236;21.134;2022-07-24T01:22:44;27.27;;;22.07;;
32485;SDS011;18935;52.236;21.134;2022-07-24T01:25:09;32.20;;;22.17;;
32485;SDS011;18935;52.236;21.134;2022-07-24T01:27:36;27.60;;;22.75;;
32485;SDS011;18935;52.236;21.134;2022-07-24T01:30:01;29.05;;;22.90;;
32485;SDS011;18935;52.236;21.134;2022-07-24T01:32:27;29.35;;;21.52;;
32485;SDS011;18935;52.236;21.134;2022-07-24T01:34:52;22.05;;;18.25;;
32485;SDS011;18935;52.236;21.134;2022-07-24T01:37:17;20.40;;;14.57;;
32485;SDS011;18935;52.236;21.134;2022-07-24T01:39:43;18.53;;;13.30;;
32485;SDS011;18935;52.236;21.134;2022-07-24T01:42:08;17.20;;;11.77;;
32485;SDS011;18935;52.236;21.134;2022-07-24T01:44:33;16.02;;;10.13;;
32485;SDS011;18935;52.236;21.134;2022-07-24T01:46:59;12.13;;;8.67;;
32485;SDS011;18935;52.236;21.134;2022-07-24T01:49:24;15.80;;;7.83;;
32485;SDS011;18935;52.236;21.134;2022-07-24T01:51:49;11.50;;;7.40;;
32485;SDS011;18935;52.236;21.134;2022-07-24T01:54:15;11.47;;;7.40;;
32485;SDS011;18935;52.236;21.134;2022-07-24T01:56:40;13.03;;;7.23;;
32485;SDS011;18935;52.236;21.134;2022-07-24T01:59:05;9.10;;;6.82;;
32485;SDS011;18935;52.236;21.134;2022-07-24T02:01:30;9.90;;;6.78;;
32485;SDS011;18935;52.236;21.134;2022-07-24T02:03:56;11.30;;;6.47;;
32485;SDS011;18935;52.236;21.134;2022-07-24T02:06:21;9.17;;;6.43;;
32485;SDS011;18935;52.236;21.134;2022-07-24T02:08:47;11.43;;;6.60;;
32485;SDS011;18935;52.236;21.134;2022-07-24T02:11:12;9.23;;;5.97;;
32485;SDS011;18935;52.236;21.134;2022-07-24T02:13:37;7.03;;;5.55;;
32485;SDS011;18935;52.236;21.134;2022-07-24T02:16:03;11.32;;;6.18;;
32485;SDS011;18935;52.236;21.134;2022-07-24T02:18:29;13.23;;;6.05;;
32485;SDS011;18935;52.236;21.134;2022-07-24T02:20:54;12.10;;;6.10;;
32485;SDS011;18935;52.236;21.134;2022-07-24T02:23:19;9.90;;;5.32;;
32485;SDS011;18935;52.236;21.134;2022-07-24T02:25:45;13.80;;;6.47;;
32485;SDS011;18935;52.236;21.134;2022-07-24T02:28:15;8.45;;;5.47;;
32485;SDS011;18935;52.236;21.134;2022-07-24T02:30:40;9.25;;;5.25;;
32485;SDS011;18935;52.236;21.134;2022-07-24T02:33:07;11.52;;;5.70;;
32485;SDS011;18935;52.236;21.134;2022-07-24T02:35:33;10.68;;;5.30;;
32485;SDS011;18935;52.236;21.134;2022-07-24T02:37:59;9.30;;;5.30;;
32485;SDS011;18935;52.236;21.134;2022-07-24T02:40:25;14.65;;;5.55;;
32485;SDS011;18935;52.236;21.134;2022-07-24T02:42:51;7.60;;;5.47;;
32485;SDS011;18935;52.236;21.134;2022-07-24T02:45:18;11.98;;;5.22;;
32485;SDS011;18935;52.236;21.134;2022-07-24T02:50:13;14.15;;;5.60;;
32485;SDS011;18935;52.236;21.134;2022-07-24T02:52:38;10.63;;;4.93;;
32485;SDS011;18935;52.236;21.134;2022-07-24T02:55:04;8.43;;;5.20;;
32485;SDS011;18935;52.236;21.134;2022-07-24T02:57:30;5.50;;;4.95;;
32485;SDS011;18935;52.236;21.134;2022-07-24T02:59:55;8.33;;;5.47;;
32485;SDS011;18935;52.236;21.134;2022-07-24T03:02:20;14.33;;;4.93;;
32485;SDS011;18935;52.236;21.134;2022-07-24T03:04:46;8.65;;;4.50;;
32485;SDS011;18935;52.236;21.134;2022-07-24T03:07:11;11.63;;;5.68;;
32485;SDS011;18935;52.236;21.134;2022-07-24T03:09:37;8.30;;;5.30;;
32485;SDS011;18935;52.236;21.134;2022-07-24T03:12:02;13.67;;;4.60;;
32485;SDS011;18935;52.236;21.134;2022-07-24T03:14:27;7.85;;;4.13;;
32485;SDS011;18935;52.236;21.134;2022-07-24T03:16:53;7.43;;;4.67;;
32485;SDS011;18935;52.236;21.134;2022-07-24T03:19:18;9.10;;;4.40;;
32485;SDS011;18935;52.236;21.134;2022-07-24T03:21:43;8.75;;;3.97;;
32485;SDS011;18935;52.236;21.134;2022-07-24T03:24:08;11.03;;;4.57;;
32485;SDS011;18935;52.236;21.134;2022-07-24T03:26:34;8.33;;;3.80;;
32485;SDS011;18935;52.236;21.134;2022-07-24T03:28:59;9.90;;;4.13;;
32485;SDS011;18935;52.236;21.134;2022-07-24T03:31:24;5.78;;;4.00;;
32485;SDS011;18935;52.236;21.134;2022-07-24T03:33:50;10.63;;;3.97;;
32485;SDS011;18935;52.236;21.134;2022-07-24T03:36:15;8.27;;;3.83;;
32485;SDS011;18935;52.236;21.134;2022-07-24T03:38:40;7.78;;;4.53;;
32485;SDS011;18935;52.236;21.134;2022-07-24T03:41:05;8.27;;;4.07;;
32485;SDS011;18935;52.236;21.134;2022-07-24T03:43:31;11.77;;;3.90;;
32485;SDS011;18935;52.236;21.134;2022-07-24T03:45:56;8.10;;;3.50;;
32485;SDS011;18935;52.236;21.134;2022-07-24T03:48:21;18.27;;;4.32;;
32485;SDS011;18935;52.236;21.134;2022-07-24T03:50:46;7.40;;;4.07;;
32485;SDS011;18935;52.236;21.134;2022-07-24T03:53:12;8.23;;;3.63;;
32485;SDS011;18935;52.236;21.134;2022-07-24T03:55:37;6.18;;;3.22;;
32485;SDS011;18935;52.236;21.134;2022-07-24T03:58:02;9.77;;;3.63;;
32485;SDS011;18935;52.236;21.134;2022-07-24T04:00:28;5.05;;;3.83;;
32485;SDS011;18935;52.236;21.134;2022-07-24T04:02:53;5.43;;;3.70;;
32485;SDS011;18935;52.236;21.134;2022-07-24T04:05:19;6.75;;;3.05;;
32485;SDS011;18935;52.236;21.134;2022-07-24T04:07:44;7.50;;;3.45;;
32485;SDS011;18935;52.236;21.134;2022-07-24T04:10:10;7.63;;;3.35;;
32485;SDS011;18935;52.236;21.134;2022-07-24T04:12:35;9.23;;;3.93;;
32485;SDS011;18935;52.236;21.134;2022-07-24T04:15:00;15.37;;;4.07;;
32485;SDS011;18935;52.236;21.134;2022-07-24T04:17:26;8.70;;;3.63;;
32485;SDS011;18935;52.236;21.134;2022-07-24T04:19:51;8.85;;;3.17;;
32485;SDS011;18935;52.236;21.134;2022-07-24T04:22:16;4.95;;;3.53;;
32485;SDS011;18935;52.236;21.134;2022-07-24T04:24:41;10.23;;;3.40;;
32485;SDS011;18935;52.236;21.134;2022-07-24T04:27:07;12.52;;;4.03;;
32485;SDS011;18935;52.236;21.134;2022-07-24T04:29:32;8.73;;;3.20;;
32485;SDS011;18935;52.236;21.134;2022-07-24T04:31:58;6.23;;;2.90;;
32485;SDS011;18935;52.236;21.134;2022-07-24T04:34:23;8.68;;;2.80;;
32485;SDS011;18935;52.236;21.134;2022-07-24T04:36:49;10.30;;;3.10;;
32485;SDS011;18935;52.236;21.134;2022-07-24T04:39:14;6.43;;;2.83;;
32485;SDS011;18935;52.236;21.134;2022-07-24T04:41:39;6.45;;;2.88;;
32485;SDS011;18935;52.236;21.134;2022-07-24T04:44:05;5.05;;;2.70;;
32485;SDS011;18935;52.236;21.134;2022-07-24T04:46:31;5.50;;;2.78;;
32485;SDS011;18935;52.236;21.134;2022-07-24T04:48:57;8.55;;;2.45;;
32485;SDS011;18935;52.236;21.134;2022-07-24T04:51:22;8.30;;;2.83;;
32485;SDS011;18935;52.236;21.134;2022-07-24T04:53:53;8.10;;;2.70;;
32485;SDS011;18935;52.236;21.134;2022-07-24T04:56:19;4.55;;;2.17;;
32485;SDS011;18935;52.236;21.134;2022-07-24T04:58:45;5.05;;;2.65;;
32485;SDS011;18935;52.236;21.134;2022-07-24T05:01:11;9.18;;;2.70;;
32485;SDS011;18935;52.236;21.134;2022-07-24T05:03:37;10.18;;;2.63;;
32485;SDS011;18935;52.236;21.134;2022-07-24T05:06:02;5.53;;;2.13;;
32485;SDS011;18935;52.236;21.134;2022-07-24T05:08:27;6.68;;;2.60;;
32485;SDS011;18935;52.236;21.134;2022-07-24T05:10:53;7.32;;;2.30;;
32485;SDS011;18935;52.236;21.134;2022-07-24T05:13:18;7.67;;;2.20;;
32485;SDS011;18935;52.236;21.134;2022-07-24T05:15:43;6.40;;;2.37;;
32485;SDS011;18935;52.236;21.134;2022-07-24T05:18:08;8.65;;;2.58;;
32485;SDS011;18935;52.236;21.134;2022-07-24T05:20:34;3.60;;;2.10;;
32485;SDS011;18935;52.236;21.134;2022-07-24T05:22:59;7.65;;;2.53;;
32485;SDS011;18935;52.236;21.134;2022-07-24T05:25:24;4.50;;;2.13;;
32485;SDS011;18935;52.236;21.134;2022-07-24T05:27:50;2.55;;;1.80;;
32485;SDS011;18935;52.236;21.134;2022-07-24T05:30:15;4.43;;;1.97;;
32485;SDS011;18935;52.236;21.134;2022-07-24T05:32:40;4.43;;;1.70;;
32485;SDS011;18935;52.236;21.134;2022-07-24T05:35:06;4.33;;;1.93;;
32485;SDS011;18935;52.236;21.134;2022-07-24T05:37:31;3.67;;;1.80;;
32485;SDS011;18935;52.236;21.134;2022-07-24T05:39:56;6.90;;;1.87;;
32485;SDS011;18935;52.236;21.134;2022-07-24T05:42:22;5.32;;;1.50;;
32485;SDS011;18935;52.236;21.134;2022-07-24T05:44:47;5.30;;;2.00;;
32485;SDS011;18935;52.236;21.134;2022-07-24T05:47:12;3.50;;;1.83;;
32485;SDS011;18935;52.236;21.134;2022-07-24T05:49:37;4.77;;;1.70;;
32485;SDS011;18935;52.236;21.134;2022-07-24T05:52:03;4.43;;;1.63;;
32485;SDS011;18935;52.236;21.134;2022-07-24T05:54:28;4.50;;;1.85;;
32485;SDS011;18935;52.236;21.134;2022-07-24T05:56:54;5.60;;;1.60;;
32485;SDS011;18935;52.236;21.134;2022-07-24T05:59:22;6.20;;;1.93;;
32485;SDS011;18935;52.236;21.134;2022-07-24T06:01:47;4.78;;;1.48;;
32485;SDS011;18935;52.236;21.134;2022-07-24T06:04:12;2.67;;;1.67;;
32485;SDS011;18935;52.236;21.134;2022-07-24T06:06:38;3.70;;;1.80;;
32485;SDS011;18935;52.236;21.134;2022-07-24T06:09:03;3.30;;;1.40;;
32485;SDS011;18935;52.236;21.134;2022-07-24T06:11:29;3.95;;;1.50;;
32485;SDS011;18935;52.236;21.134;2022-07-24T06:13:54;2.58;;;1.40;;
32485;SDS011;18935;52.236;21.134;2022-07-24T06:16:19;3.80;;;1.60;;
32485;SDS011;18935;52.236;21.134;2022-07-24T06:18:45;7.87;;;1.60;;
32485;SDS011;18935;52.236;21.134;2022-07-24T06:21:10;5.50;;;1.67;;
32485;SDS011;18935;52.236;21.134;2022-07-24T06:23:35;5.87;;;1.93;;
32485;SDS011;18935;52.236;21.134;2022-07-24T06:26:00;8.43;;;2.03;;
32485;SDS011;18935;52.236;21.134;2022-07-24T06:28:26;3.40;;;1.43;;
32485;SDS011;18935;52.236;21.134;2022-07-24T06:30:51;5.03;;;1.70;;
32485;SDS011;18935;52.236;21.134;2022-07-24T06:33:16;5.97;;;1.92;;
32485;SDS011;18935;52.236;21.134;2022-07-24T06:35:42;5.00;;;1.73;;
32485;SDS011;18935;52.236;21.134;2022-07-24T06:38:07;3.53;;;1.67;;
32485;SDS011;18935;52.236;21.134;2022-07-24T06:40:34;4.80;;;1.30;;
32485;SDS011;18935;52.236;21.134;2022-07-24T06:43:01;5.57;;;1.80;;
32485;SDS011;18935;52.236;21.134;2022-07-24T06:45:27;7.25;;;1.70;;
32485;SDS011;18935;52.236;21.134;2022-07-24T06:47:52;7.27;;;1.67;;
32485;SDS011;18935;52.236;21.134;2022-07-24T06:50:18;5.17;;;1.70;;
32485;SDS011;18935;52.236;21.134;2022-07-24T06:52:43;9.90;;;2.17;;
32485;SDS011;18935;52.236;21.134;2022-07-24T06:55:10;7.00;;;2.00;;
32485;SDS011;18935;52.236;21.134;2022-07-24T06:57:35;4.40;;;1.63;;
32485;SDS011;18935;52.236;21.134;2022-07-24T07:00:01;6.00;;;1.60;;
32485;SDS011;18935;52.236;21.134;2022-07-24T07:02:28;3.85;;;1.60;;
32485;SDS011;18935;52.236;21.134;2022-07-24T07:04:53;7.77;;;1.50;;
32485;SDS011;18935;52.236;21.134;2022-07-24T07:07:18;5.20;;;1.50;;
32485;SDS011;18935;52.236;21.134;2022-07-24T07:09:44;10.27;;;1.80;;
32485;SDS011;18935;52.236;21.134;2022-07-24T07:12:10;6.63;;;1.92;;
32485;SDS011;18935;52.236;21.134;2022-07-24T07:14:35;5.45;;;1.83;;
32485;SDS011;18935;52.236;21.134;2022-07-24T07:17:01;5.85;;;1.70;;
32485;SDS011;18935;52.236;21.134;2022-07-24T07:19:26;7.20;;;2.27;;
32485;SDS011;18935;52.236;21.134;2022-07-24T07:21:51;8.13;;;1.73;;
32485;SDS011;18935;52.236;21.134;2022-07-24T07:24:16;9.07;;;1.60;;
32485;SDS011;18935;52.236;21.134;2022-07-24T07:26:42;9.07;;;1.57;;
32485;SDS011;18935;52.236;21.134;2022-07-24T07:29:07;3.72;;;1.70;;
32485;SDS011;18935;52.236;21.134;2022-07-24T07:31:33;3.33;;;1.47;;
32485;SDS011;18935;52.236;21.134;2022-07-24T07:33:58;18.05;;;2.42;;
32485;SDS011;18935;52.236;21.134;2022-07-24T07:36:24;4.63;;;1.60;;
32485;SDS011;18935;52.236;21.134;2022-07-24T07:38:49;5.10;;;1.63;;
32485;SDS011;18935;52.236;21.134;2022-07-24T07:41:15;3.00;;;1.60;;
32485;SDS011;18935;52.236;21.134;2022-07-24T07:43:40;4.78;;;1.52;;
32485;SDS011;18935;52.236;21.134;2022-07-24T07:46:06;7.65;;;1.63;;
32485;SDS011;18935;52.236;21.134;2022-07-24T07:48:31;6.43;;;1.63;;
32485;SDS011;18935;52.236;21.134;2022-07-24T07:50:57;4.35;;;1.60;;
32485;SDS011;18935;52.236;21.134;2022-07-24T07:53:23;4.53;;;1.52;;
32485;SDS011;18935;52.236;21.134;2022-07-24T07:55:49;4.95;;;1.73;;
32485;SDS011;18935;52.236;21.134;2022-07-24T07:58:16;3.58;;;1.60;;
32485;SDS011;18935;52.236;21.134;2022-07-24T08:00:42;5.68;;;2.28;;
32485;SDS011;18935;52.236;21.134;2022-07-24T08:03:08;3.17;;;1.55;;
32485;SDS011;18935;52.236;21.134;2022-07-24T08:05:33;7.60;;;2.10;;
32485;SDS011;18935;52.236;21.134;2022-07-24T08:07:58;9.77;;;1.70;;
32485;SDS011;18935;52.236;21.134;2022-07-24T08:10:26;5.38;;;1.63;;
32485;SDS011;18935;52.236;21.134;2022-07-24T08:12:51;2.92;;;1.63;;
32485;SDS011;18935;52.236;21.134;2022-07-24T08:15:16;6.57;;;1.60;;
32485;SDS011;18935;52.236;21.134;2022-07-24T08:17:42;4.35;;;1.42;;
32485;SDS011;18935;52.236;21.134;2022-07-24T08:20:08;5.22;;;1.98;;
32485;SDS011;18935;52.236;21.134;2022-07-24T08:22:33;6.55;;;1.75;;
32485;SDS011;18935;52.236;21.134;2022-07-24T08:25:00;15.00;;;1.57;;
32485;SDS011;18935;52.236;21.134;2022-07-24T08:27:25;9.00;;;2.03;;
32485;SDS011;18935;52.236;21.134;2022-07-24T08:29:51;4.20;;;1.50;;
32485;SDS011;18935;52.236;21.134;2022-07-24T08:32:16;3.93;;;1.83;;
32485;SDS011;18935;52.236;21.134;2022-07-24T08:34:41;10.02;;;2.65;;
32485;SDS011;18935;52.236;21.134;2022-07-24T08:37:08;11.03;;;2.57;;
32485;SDS011;18935;52.236;21.134;2022-07-24T08:39:33;7.20;;;2.05;;
32485;SDS011;18935;52.236;21.134;2022-07-24T08:41:58;10.17;;;1.90;;
32485;SDS011;18935;52.236;21.134;2022-07-24T08:44:24;2.42;;;1.40;;
32485;SDS011;18935;52.236;21.134;2022-07-24T08:46:49;4.50;;;1.33;;
32485;SDS011;18935;52.236;21.134;2022-07-24T08:49:15;3.13;;;1.42;;
32485;SDS011;18935;52.236;21.134;2022-07-24T08:51:41;3.47;;;1.45;;
32485;SDS011;18935;52.236;21.134;2022-07-24T08:54:08;4.32;;;1.67;;
32485;SDS011;18935;52.236;21.134;2022-07-24T08:56:37;2.75;;;1.42;;
32485;SDS011;18935;52.236;21.134;2022-07-24T08:59:04;1.92;;;1.45;;
32485;SDS011;18935;52.236;21.134;2022-07-24T09:01:29;4.82;;;2.40;;
32485;SDS011;18935;52.236;21.134;2022-07-24T09:03:54;3.78;;;1.60;;
32485;SDS011;18935;52.236;21.134;2022-07-24T09:06:20;5.28;;;1.70;;
32485;SDS011;18935;52.236;21.134;2022-07-24T09:08:58;2.42;;;1.55;;
32485;SDS011;18935;52.236;21.134;2022-07-24T09:11:25;3.17;;;1.50;;
32485;SDS011;18935;52.236;21.134;2022-07-24T09:13:53;4.10;;;1.88;;
32485;SDS011;18935;52.236;21.134;2022-07-24T09:16:37;5.90;;;1.42;;
32485;SDS011;18935;52.236;21.134;2022-07-24T09:19:07;4.60;;;1.50;;
32485;SDS011;18935;52.236;21.134;2022-07-24T09:21:34;3.95;;;1.50;;
32485;SDS011;18935;52.236;21.134;2022-07-24T09:24:13;3.40;;;1.30;;
32485;SDS011;18935;52.236;21.134;2022-07-24T09:26:57;3.67;;;1.25;;
32485;SDS011;18935;52.236;21.134;2022-07-24T09:29:23;4.65;;;1.77;;
32485;SDS011;18935;52.236;21.134;2022-07-24T09:34:27;4.80;;;1.83;;
32485;SDS011;18935;52.236;21.134;2022-07-24T09:37:02;3.30;;;1.60;;
32485;SDS011;18935;52.236;21.134;2022-07-24T09:39:29;4.25;;;1.67;;
32485;SDS011;18935;52.236;21.134;2022-07-24T09:41:57;7.18;;;1.83;;
32485;SDS011;18935;52.236;21.134;2022-07-24T09:44:23;2.67;;;1.80;;
32485;SDS011;18935;52.236;21.134;2022-07-24T09:47:00;2.95;;;1.58;;
32485;SDS011;18935;52.236;21.134;2022-07-24T09:49:30;4.28;;;1.83;;
32485;SDS011;18935;52.236;21.134;2022-07-24T09:54:31;5.07;;;1.30;;
32485;SDS011;18935;52.236;21.134;2022-07-24T09:57:17;5.35;;;1.52;;
32485;SDS011;18935;52.236;21.134;2022-07-24T09:59:57;3.72;;;1.40;;
32485;SDS011;18935;52.236;21.134;2022-07-24T10:02:31;5.13;;;1.75;;
32485;SDS011;18935;52.236;21.134;2022-07-24T10:04:58;8.35;;;2.08;;
32485;SDS011;18935;52.236;21.134;2022-07-24T10:07:25;4.57;;;1.70;;
32485;SDS011;18935;52.236;21.134;2022-07-24T10:09:53;6.53;;;1.70;;
32485;SDS011;18935;52.236;21.134;2022-07-24T10:12:21;4.72;;;1.70;;
32485;SDS011;18935;52.236;21.134;2022-07-24T10:14:48;2.90;;;1.60;;
32485;SDS011;18935;52.236;21.134;2022-07-24T10:17:15;5.45;;;1.80;;
32485;SDS011;18935;52.236;21.134;2022-07-24T10:19:43;2.63;;;1.45;;
32485;SDS011;18935;52.236;21.134;2022-07-24T10:22:13;8.75;;;1.90;;
32485;SDS011;18935;52.236;21.134;2022-07-24T10:27:38;5.00;;;1.58;;
32485;SDS011;18935;52.236;21.134;2022-07-24T10:30:06;2.20;;;1.50;;
32485;SDS011;18935;52.236;21.134;2022-07-24T10:32:33;3.70;;;1.77;;
32485;SDS011;18935;52.236;21.134;2022-07-24T10:37:33;2.30;;;1.75;;
32485;SDS011;18935;52.236;21.134;2022-07-24T10:42:33;5.25;;;2.13;;
32485;SDS011;18935;52.236;21.134;2022-07-24T10:45:17;4.55;;;1.75;;
32485;SDS011;18935;52.236;21.134;2022-07-24T10:47:44;4.55;;;1.67;;
32485;SDS011;18935;52.236;21.134;2022-07-24T10:50:11;2.95;;;1.75;;
32485;SDS011;18935;52.236;21.134;2022-07-24T10:52:37;5.25;;;1.83;;
32485;SDS011;18935;52.236;21.134;2022-07-24T10:57:55;4.78;;;1.85;;
32485;SDS011;18935;52.236;21.134;2022-07-24T11:00:36;6.60;;;1.83;;
32485;SDS011;18935;52.236;21.134;2022-07-24T11:03:04;7.30;;;2.03;;
32485;SDS011;18935;52.236;21.134;2022-07-24T11:05:35;3.45;;;2.22;;
32485;SDS011;18935;52.236;21.134;2022-07-24T11:10:44;3.63;;;2.50;;
32485;SDS011;18935;52.236;21.134;2022-07-24T11:18:34;4.35;;;2.13;;
32485;SDS011;18935;52.236;21.134;2022-07-24T11:21:00;2.80;;;2.10;;
32485;SDS011;18935;52.236;21.134;2022-07-24T11:23:25;5.50;;;2.10;;
32485;SDS011;18935;52.236;21.134;2022-07-24T11:25:51;4.43;;;2.00;;
32485;SDS011;18935;52.236;21.134;2022-07-24T11:28:36;3.83;;;1.90;;
32485;SDS011;18935;52.236;21.134;2022-07-24T11:31:01;5.03;;;2.13;;
32485;SDS011;18935;52.236;21.134;2022-07-24T11:33:28;3.67;;;1.98;;
32485;SDS011;18935;52.236;21.134;2022-07-24T11:35:54;6.03;;;2.30;;
32485;SDS011;18935;52.236;21.134;2022-07-24T11:38:20;2.90;;;2.10;;
32485;SDS011;18935;52.236;21.134;2022-07-24T11:41:03;4.25;;;1.83;;
32485;SDS011;18935;52.236;21.134;2022-07-24T11:43:30;2.72;;;1.95;;
32485;SDS011;18935;52.236;21.134;2022-07-24T11:45:55;3.25;;;2.08;;
32485;SDS011;18935;52.236;21.134;2022-07-24T11:48:20;5.18;;;2.45;;
32485;SDS011;18935;52.236;21.134;2022-07-24T11:50:46;2.25;;;2.00;;
32485;SDS011;18935;52.236;21.134;2022-07-24T11:53:11;2.53;;;2.13;;
32485;SDS011;18935;52.236;21.134;2022-07-24T11:55:36;3.35;;;2.22;;
32485;SDS011;18935;52.236;21.134;2022-07-24T11:58:02;5.55;;;2.00;;
32485;SDS011;18935;52.236;21.134;2022-07-24T12:00:27;3.42;;;2.00;;
32485;SDS011;18935;52.236;21.134;2022-07-24T12:02:56;3.25;;;2.13;;
32485;SDS011;18935;52.236;21.134;2022-07-24T12:05:24;4.85;;;2.25;;
32485;SDS011;18935;52.236;21.134;2022-07-24T12:07:52;2.70;;;2.07;;
32485;SDS011;18935;52.236;21.134;2022-07-24T12:10:18;4.60;;;1.80;;
32485;SDS011;18935;52.236;21.134;2022-07-24T12:12:46;3.58;;;2.05;;
32485;SDS011;18935;52.236;21.134;2022-07-24T12:15:14;2.40;;;1.80;;
32485;SDS011;18935;52.236;21.134;2022-07-24T12:20:25;3.45;;;2.17;;
32485;SDS011;18935;52.236;21.134;2022-07-24T12:22:54;4.38;;;2.28;;
32485;SDS011;18935;52.236;21.134;2022-07-24T12:25:21;3.88;;;2.45;;
32485;SDS011;18935;52.236;21.134;2022-07-24T12:27:46;3.00;;;2.13;;
32485;SDS011;18935;52.236;21.134;2022-07-24T12:30:21;2.72;;;2.03;;
32485;SDS011;18935;52.236;21.134;2022-07-24T12:32:54;2.10;;;1.70;;
32485;SDS011;18935;52.236;21.134;2022-07-24T12:35:25;2.42;;;1.70;;
32485;SDS011;18935;52.236;21.134;2022-07-24T12:37:52;3.33;;;1.85;;
32485;SDS011;18935;52.236;21.134;2022-07-24T12:40:25;9.23;;;2.42;;
32485;SDS011;18935;52.236;21.134;2022-07-24T12:42:55;3.80;;;2.00;;
32485;SDS011;18935;52.236;21.134;2022-07-24T12:45:21;2.38;;;2.10;;
32485;SDS011;18935;52.236;21.134;2022-07-24T12:48:05;4.97;;;2.27;;
32485;SDS011;18935;52.236;21.134;2022-07-24T12:50:32;2.80;;;1.98;;
32485;SDS011;18935;52.236;21.134;2022-07-24T12:53:04;4.07;;;2.40;;
32485;SDS011;18935;52.236;21.134;2022-07-24T12:55:31;27.05;;;5.05;;
32485;SDS011;18935;52.236;21.134;2022-07-24T12:57:58;10.48;;;3.40;;
32485;SDS011;18935;52.236;21.134;2022-07-24T13:00:24;4.47;;;2.70;;
32485;SDS011;18935;52.236;21.134;2022-07-24T13:02:50;5.70;;;2.90;;
32485;SDS011;18935;52.236;21.134;2022-07-24T13:05:15;5.57;;;2.90;;
32485;SDS011;18935;52.236;21.134;2022-07-24T13:08:01;5.75;;;2.53;;
32485;SDS011;18935;52.236;21.134;2022-07-24T13:10:26;6.40;;;2.40;;
32485;SDS011;18935;52.236;21.134;2022-07-24T13:12:51;13.03;;;2.47;;
32485;SDS011;18935;52.236;21.134;2022-07-24T13:15:17;4.63;;;2.55;;
32485;SDS011;18935;52.236;21.134;2022-07-24T13:17:43;5.72;;;2.22;;
32485;SDS011;18935;52.236;21.134;2022-07-24T13:20:08;6.77;;;2.47;;
32485;SDS011;18935;52.236;21.134;2022-07-24T13:22:34;4.60;;;2.78;;
32485;SDS011;18935;52.236;21.134;2022-07-24T13:25:01;4.53;;;2.50;;
32485;SDS011;18935;52.236;21.134;2022-07-24T13:27:27;6.03;;;2.28;;
32485;SDS011;18935;52.236;21.134;2022-07-24T13:29:52;5.40;;;2.47;;
32485;SDS011;18935;52.236;21.134;2022-07-24T13:32:17;3.33;;;2.50;;
32485;SDS011;18935;52.236;21.134;2022-07-24T13:34:43;7.13;;;2.20;;
32485;SDS011;18935;52.236;21.134;2022-07-24T13:37:08;6.43;;;2.57;;
32485;SDS011;18935;52.236;21.134;2022-07-24T13:39:33;2.30;;;1.90;;
32485;SDS011;18935;52.236;21.134;2022-07-24T13:42:00;4.25;;;1.85;;
32485;SDS011;18935;52.236;21.134;2022-07-24T13:44:26;3.83;;;1.87;;
32485;SDS011;18935;52.236;21.134;2022-07-24T13:46:51;8.77;;;5.17;;
32485;SDS011;18935;52.236;21.134;2022-07-24T13:49:17;2.72;;;1.92;;
32485;SDS011;18935;52.236;21.134;2022-07-24T13:51:42;6.57;;;1.85;;
32485;SDS011;18935;52.236;21.134;2022-07-24T13:54:08;3.83;;;2.00;;
32485;SDS011;18935;52.236;21.134;2022-07-24T13:56:33;3.93;;;2.07;;
32485;SDS011;18935;52.236;21.134;2022-07-24T13:58:59;2.72;;;1.90;;
32485;SDS011;18935;52.236;21.134;2022-07-24T14:01:24;2.83;;;2.00;;
32485;SDS011;18935;52.236;21.134;2022-07-24T14:03:49;9.35;;;2.72;;
32485;SDS011;18935;52.236;21.134;2022-07-24T14:06:15;5.13;;;2.17;;
32485;SDS011;18935;52.236;21.134;2022-07-24T14:08:41;5.28;;;2.10;;
32485;SDS011;18935;52.236;21.134;2022-07-24T14:11:07;8.73;;;2.15;;
32485;SDS011;18935;52.236;21.134;2022-07-24T14:13:33;3.55;;;2.20;;
32485;SDS011;18935;52.236;21.134;2022-07-24T14:15:59;6.68;;;2.50;;
32485;SDS011;18935;52.236;21.134;2022-07-24T14:18:25;2.42;;;2.20;;
32485;SDS011;18935;52.236;21.134;2022-07-24T14:20:50;3.60;;;2.77;;
32485;SDS011;18935;52.236;21.134;2022-07-24T14:23:16;6.80;;;3.30;;
32485;SDS011;18935;52.236;21.134;2022-07-24T14:25:42;7.55;;;4.43;;
32485;SDS011;18935;52.236;21.134;2022-07-24T14:28:08;6.50;;;3.90;;
32485;SDS011;18935;52.236;21.134;2022-07-24T14:30:33;6.97;;;3.77;;
32485;SDS011;18935;52.236;21.134;2022-07-24T14:32:59;8.25;;;4.60;;
32485;SDS011;18935;52.236;21.134;2022-07-24T14:35:24;4.70;;;4.15;;
32485;SDS011;18935;52.236;21.134;2022-07-24T14:37:52;20.17;;;4.15;;
32485;SDS011;18935;52.236;21.134;2022-07-24T14:40:17;9.45;;;3.40;;
32485;SDS011;18935;52.236;21.134;2022-07-24T14:42:42;7.03;;;4.40;;
32485;SDS011;18935;52.236;21.134;2022-07-24T14:45:08;3.80;;;3.20;;
32485;SDS011;18935;52.236;21.134;2022-07-24T14:47:33;4.10;;;3.38;;
32485;SDS011;18935;52.236;21.134;2022-07-24T14:49:59;288.08;;;16.38;;
32485;SDS011;18935;52.236;21.134;2022-07-24T14:52:24;5.97;;;2.85;;
32485;SDS011;18935;52.236;21.134;2022-07-24T14:54:50;7.10;;;1.95;;
32485;SDS011;18935;52.236;21.134;2022-07-24T14:57:15;2.25;;;2.00;;